sensor_id;sensor_type;location;lat;lon;timestamp;P1;durP1;ratioP1;P2;durP2;ratioP2
58384;SDS011;44185;47.844;8.966;2023-04-12T00:01:25;3.55;;;1.90;;
58384;SDS011;44185;47.844;8.966;2023-04-12T00:03:51;1.90;;;1.65;;
58384;SDS011;44185;47.844;8.966;2023-04-12T00:06:18;3.13;;;2.00;;
58384;SDS011;44185;47.844;8.966;2023-04-12T00:08:43;3.92;;;2.05;;
58384;SDS011;44185;47.844;8.966;2023-04-12T00:11:08;2.72;;;1.70;;
58384;SDS011;44185;47.844;8.966;2023-04-12T00:13:34;3.00;;;1.98;;
58384;SDS011;44185;47.844;8.966;2023-04-12T00:15:59;4.15;;;2.10;;
58384;SDS011;44185;47.844;8.966;2023-04-12T00:18:25;2.97;;;1.90;;
58384;SDS011;44185;47.844;8.966;2023-04-12T00:20:50;3.42;;;1.90;;
58384;SDS011;44185;47.844;8.966;2023-04-12T00:23:17;4.00;;;2.20;;
58384;SDS011;44185;47.844;8.966;2023-04-12T00:25:42;2.65;;;1.95;;
58384;SDS011;44185;47.844;8.966;2023-04-12T00:28:08;3.75;;;2.20;;
58384;SDS011;44185;47.844;8.966;2023-04-12T00:30:34;2.20;;;2.00;;
58384;SDS011;44185;47.844;8.966;2023-04-12T00:32:59;4.70;;;2.60;;
58384;SDS011;44185;47.844;8.966;2023-04-12T00:35:25;4.78;;;2.80;;
58384;SDS011;44185;47.844;8.966;2023-04-12T00:37:50;4.35;;;2.88;;
58384;SDS011;44185;47.844;8.966;2023-04-12T00:40:17;5.55;;;3.28;;
58384;SDS011;44185;47.844;8.966;2023-04-12T00:42:42;6.28;;;3.42;;
58384;SDS011;44185;47.844;8.966;2023-04-12T00:45:09;3.38;;;2.60;;
58384;SDS011;44185;47.844;8.966;2023-04-12T00:47:35;4.40;;;2.60;;
58384;SDS011;44185;47.844;8.966;2023-04-12T00:50:01;3.28;;;2.58;;
58384;SDS011;44185;47.844;8.966;2023-04-12T00:52:28;2.28;;;2.00;;
58384;SDS011;44185;47.844;8.966;2023-04-12T00:54:53;3.50;;;2.00;;
58384;SDS011;44185;47.844;8.966;2023-04-12T00:57:20;2.38;;;2.05;;
58384;SDS011;44185;47.844;8.966;2023-04-12T00:59:46;3.88;;;1.80;;
58384;SDS011;44185;47.844;8.966;2023-04-12T01:02:11;6.60;;;3.10;;
58384;SDS011;44185;47.844;8.966;2023-04-12T01:04:37;7.10;;;2.97;;
58384;SDS011;44185;47.844;8.966;2023-04-12T01:07:07;8.25;;;4.07;;
58384;SDS011;44185;47.844;8.966;2023-04-12T01:09:40;7.00;;;4.22;;
58384;SDS011;44185;47.844;8.966;2023-04-12T01:12:15;6.78;;;3.45;;
58384;SDS011;44185;47.844;8.966;2023-04-12T01:14:50;6.50;;;3.33;;
58384;SDS011;44185;47.844;8.966;2023-04-12T01:17:20;2.70;;;2.42;;
58384;SDS011;44185;47.844;8.966;2023-04-12T01:19:54;2.63;;;2.00;;
58384;SDS011;44185;47.844;8.966;2023-04-12T01:22:36;3.03;;;1.98;;
58384;SDS011;44185;47.844;8.966;2023-04-12T01:25:21;1.73;;;1.58;;
58384;SDS011;44185;47.844;8.966;2023-04-12T01:27:56;2.97;;;1.80;;
58384;SDS011;44185;47.844;8.966;2023-04-12T01:30:27;2.03;;;1.55;;
58384;SDS011;44185;47.844;8.966;2023-04-12T01:32:54;3.95;;;1.85;;
58384;SDS011;44185;47.844;8.966;2023-04-12T01:35:21;2.78;;;1.67;;
58384;SDS011;44185;47.844;8.966;2023-04-12T01:37:49;2.33;;;1.90;;
58384;SDS011;44185;47.844;8.966;2023-04-12T01:40:16;2.85;;;1.90;;
58384;SDS011;44185;47.844;8.966;2023-04-12T01:42:42;2.50;;;2.30;;
58384;SDS011;44185;47.844;8.966;2023-04-12T01:45:10;2.63;;;2.08;;
58384;SDS011;44185;47.844;8.966;2023-04-12T01:47:35;2.47;;;2.20;;
58384;SDS011;44185;47.844;8.966;2023-04-12T01:50:05;4.53;;;2.58;;
58384;SDS011;44185;47.844;8.966;2023-04-12T01:52:42;6.97;;;3.08;;
58384;SDS011;44185;47.844;8.966;2023-04-12T01:55:17;4.43;;;2.80;;
58384;SDS011;44185;47.844;8.966;2023-04-12T01:57:45;7.53;;;3.38;;
58384;SDS011;44185;47.844;8.966;2023-04-12T02:00:14;4.85;;;3.30;;
58384;SDS011;44185;47.844;8.966;2023-04-12T02:02:42;7.03;;;3.77;;
58384;SDS011;44185;47.844;8.966;2023-04-12T02:05:07;6.70;;;3.50;;
58384;SDS011;44185;47.844;8.966;2023-04-12T02:07:34;7.78;;;3.45;;
58384;SDS011;44185;47.844;8.966;2023-04-12T02:09:59;4.25;;;2.67;;
58384;SDS011;44185;47.844;8.966;2023-04-12T02:12:24;2.67;;;2.22;;
58384;SDS011;44185;47.844;8.966;2023-04-12T02:14:50;4.50;;;2.17;;
58384;SDS011;44185;47.844;8.966;2023-04-12T02:17:17;4.40;;;2.10;;
58384;SDS011;44185;47.844;8.966;2023-04-12T02:19:42;3.20;;;2.30;;
58384;SDS011;44185;47.844;8.966;2023-04-12T02:22:08;6.03;;;2.60;;
58384;SDS011;44185;47.844;8.966;2023-04-12T02:24:34;4.25;;;2.42;;
58384;SDS011;44185;47.844;8.966;2023-04-12T02:26:59;2.95;;;2.20;;
58384;SDS011;44185;47.844;8.966;2023-04-12T02:29:24;3.35;;;2.60;;
58384;SDS011;44185;47.844;8.966;2023-04-12T02:31:50;2.58;;;2.03;;
58384;SDS011;44185;47.844;8.966;2023-04-12T02:34:17;4.10;;;1.92;;
58384;SDS011;44185;47.844;8.966;2023-04-12T02:36:45;3.60;;;2.38;;
58384;SDS011;44185;47.844;8.966;2023-04-12T02:39:10;2.63;;;2.25;;
58384;SDS011;44185;47.844;8.966;2023-04-12T02:41:36;3.22;;;2.35;;
58384;SDS011;44185;47.844;8.966;2023-04-12T02:44:01;7.05;;;3.05;;
58384;SDS011;44185;47.844;8.966;2023-04-12T02:46:27;9.23;;;3.88;;
58384;SDS011;44185;47.844;8.966;2023-04-12T02:48:52;6.75;;;3.75;;
58384;SDS011;44185;47.844;8.966;2023-04-12T02:51:19;6.55;;;2.70;;
58384;SDS011;44185;47.844;8.966;2023-04-12T02:53:45;5.30;;;3.03;;
58384;SDS011;44185;47.844;8.966;2023-04-12T02:56:10;3.28;;;2.22;;
58384;SDS011;44185;47.844;8.966;2023-04-12T02:58:36;4.32;;;2.50;;
58384;SDS011;44185;47.844;8.966;2023-04-12T03:01:01;3.65;;;2.65;;
58384;SDS011;44185;47.844;8.966;2023-04-12T03:03:27;8.00;;;4.53;;
58384;SDS011;44185;47.844;8.966;2023-04-12T03:05:52;10.57;;;5.95;;
58384;SDS011;44185;47.844;8.966;2023-04-12T03:08:19;9.77;;;5.53;;
58384;SDS011;44185;47.844;8.966;2023-04-12T03:10:45;4.05;;;2.63;;
58384;SDS011;44185;47.844;8.966;2023-04-12T03:13:10;3.47;;;2.28;;
58384;SDS011;44185;47.844;8.966;2023-04-12T03:15:36;4.43;;;2.47;;
58384;SDS011;44185;47.844;8.966;2023-04-12T03:18:01;3.80;;;2.38;;
58384;SDS011;44185;47.844;8.966;2023-04-12T03:20:27;2.65;;;2.13;;
58384;SDS011;44185;47.844;8.966;2023-04-12T03:22:52;2.38;;;1.95;;
58384;SDS011;44185;47.844;8.966;2023-04-12T03:25:19;3.30;;;2.47;;
58384;SDS011;44185;47.844;8.966;2023-04-12T03:27:45;2.70;;;2.50;;
58384;SDS011;44185;47.844;8.966;2023-04-12T03:30:10;4.65;;;2.30;;
58384;SDS011;44185;47.844;8.966;2023-04-12T03:32:37;3.15;;;2.30;;
58384;SDS011;44185;47.844;8.966;2023-04-12T03:35:03;5.00;;;2.42;;
58384;SDS011;44185;47.844;8.966;2023-04-12T03:37:28;3.35;;;2.15;;
58384;SDS011;44185;47.844;8.966;2023-04-12T03:39:55;3.60;;;2.30;;
58384;SDS011;44185;47.844;8.966;2023-04-12T03:42:21;4.90;;;2.60;;
58384;SDS011;44185;47.844;8.966;2023-04-12T03:44:47;3.65;;;2.55;;
58384;SDS011;44185;47.844;8.966;2023-04-12T03:47:12;4.07;;;2.80;;
58384;SDS011;44185;47.844;8.966;2023-04-12T03:49:38;4.20;;;2.65;;
58384;SDS011;44185;47.844;8.966;2023-04-12T03:52:04;3.95;;;2.63;;
58384;SDS011;44185;47.844;8.966;2023-04-12T03:54:30;4.35;;;2.50;;
58384;SDS011;44185;47.844;8.966;2023-04-12T03:56:55;4.68;;;2.42;;
58384;SDS011;44185;47.844;8.966;2023-04-12T03:59:22;3.25;;;2.20;;
58384;SDS011;44185;47.844;8.966;2023-04-12T04:01:48;5.20;;;2.60;;
58384;SDS011;44185;47.844;8.966;2023-04-12T04:04:13;5.50;;;3.30;;
58384;SDS011;44185;47.844;8.966;2023-04-12T04:06:39;5.65;;;3.00;;
58384;SDS011;44185;47.844;8.966;2023-04-12T04:09:04;5.47;;;2.90;;
58384;SDS011;44185;47.844;8.966;2023-04-12T04:11:30;4.50;;;2.67;;
58384;SDS011;44185;47.844;8.966;2023-04-12T04:13:56;3.40;;;2.30;;
58384;SDS011;44185;47.844;8.966;2023-04-12T04:16:23;2.88;;;2.58;;
58384;SDS011;44185;47.844;8.966;2023-04-12T04:18:48;3.58;;;2.60;;
58384;SDS011;44185;47.844;8.966;2023-04-12T04:21:13;4.50;;;2.47;;
58384;SDS011;44185;47.844;8.966;2023-04-12T04:23:39;3.30;;;2.40;;
58384;SDS011;44185;47.844;8.966;2023-04-12T04:26:04;3.10;;;1.92;;
58384;SDS011;44185;47.844;8.966;2023-04-12T04:28:30;2.87;;;2.10;;
58384;SDS011;44185;47.844;8.966;2023-04-12T04:30:56;2.85;;;2.45;;
58384;SDS011;44185;47.844;8.966;2023-04-12T04:33:25;5.95;;;2.63;;
58384;SDS011;44185;47.844;8.966;2023-04-12T04:35:51;4.13;;;2.75;;
58384;SDS011;44185;47.844;8.966;2023-04-12T04:38:16;4.32;;;2.75;;
58384;SDS011;44185;47.844;8.966;2023-04-12T04:40:41;3.53;;;2.65;;
58384;SDS011;44185;47.844;8.966;2023-04-12T04:43:07;5.78;;;2.75;;
58384;SDS011;44185;47.844;8.966;2023-04-12T04:45:32;4.43;;;3.05;;
58384;SDS011;44185;47.844;8.966;2023-04-12T04:47:58;6.53;;;3.50;;
58384;SDS011;44185;47.844;8.966;2023-04-12T04:50:24;6.15;;;3.50;;
58384;SDS011;44185;47.844;8.966;2023-04-12T04:52:50;5.22;;;3.03;;
58384;SDS011;44185;47.844;8.966;2023-04-12T04:55:16;5.15;;;3.45;;
58384;SDS011;44185;47.844;8.966;2023-04-12T04:57:42;4.03;;;2.90;;
58384;SDS011;44185;47.844;8.966;2023-04-12T05:00:08;4.60;;;2.90;;
58384;SDS011;44185;47.844;8.966;2023-04-12T05:02:34;4.78;;;2.90;;
58384;SDS011;44185;47.844;8.966;2023-04-12T05:04:59;4.85;;;3.03;;
58384;SDS011;44185;47.844;8.966;2023-04-12T05:07:26;4.18;;;3.05;;
58384;SDS011;44185;47.844;8.966;2023-04-12T05:09:51;5.78;;;3.00;;
58384;SDS011;44185;47.844;8.966;2023-04-12T05:12:17;5.50;;;3.47;;
58384;SDS011;44185;47.844;8.966;2023-04-12T05:14:42;8.00;;;3.38;;
58384;SDS011;44185;47.844;8.966;2023-04-12T05:17:08;4.22;;;2.75;;
58384;SDS011;44185;47.844;8.966;2023-04-12T05:19:34;5.57;;;2.92;;
58384;SDS011;44185;47.844;8.966;2023-04-12T05:21:59;4.82;;;3.22;;
58384;SDS011;44185;47.844;8.966;2023-04-12T05:24:26;5.63;;;3.38;;
58384;SDS011;44185;47.844;8.966;2023-04-12T05:26:51;4.50;;;2.85;;
58384;SDS011;44185;47.844;8.966;2023-04-12T05:29:17;3.95;;;3.20;;
58384;SDS011;44185;47.844;8.966;2023-04-12T05:31:42;4.60;;;3.08;;
58384;SDS011;44185;47.844;8.966;2023-04-12T05:34:07;6.57;;;4.10;;
58384;SDS011;44185;47.844;8.966;2023-04-12T05:36:33;9.25;;;4.20;;
58384;SDS011;44185;47.844;8.966;2023-04-12T05:38:58;9.82;;;5.22;;
58384;SDS011;44185;47.844;8.966;2023-04-12T05:41:25;8.85;;;4.80;;
58384;SDS011;44185;47.844;8.966;2023-04-12T05:43:50;9.52;;;4.90;;
58384;SDS011;44185;47.844;8.966;2023-04-12T05:46:16;10.77;;;6.00;;
58384;SDS011;44185;47.844;8.966;2023-04-12T05:48:41;9.65;;;5.03;;
58384;SDS011;44185;47.844;8.966;2023-04-12T05:51:07;8.63;;;5.38;;
58384;SDS011;44185;47.844;8.966;2023-04-12T05:53:32;8.95;;;4.80;;
58384;SDS011;44185;47.844;8.966;2023-04-12T05:55:58;7.05;;;4.15;;
58384;SDS011;44185;47.844;8.966;2023-04-12T05:58:24;5.28;;;3.58;;
58384;SDS011;44185;47.844;8.966;2023-04-12T06:00:50;6.45;;;3.50;;
58384;SDS011;44185;47.844;8.966;2023-04-12T06:03:15;5.55;;;3.20;;
58384;SDS011;44185;47.844;8.966;2023-04-12T06:05:41;7.30;;;3.72;;
58384;SDS011;44185;47.844;8.966;2023-04-12T06:08:06;6.88;;;3.60;;
58384;SDS011;44185;47.844;8.966;2023-04-12T06:10:32;5.10;;;3.17;;
58384;SDS011;44185;47.844;8.966;2023-04-12T06:12:57;7.60;;;3.92;;
58384;SDS011;44185;47.844;8.966;2023-04-12T06:15:25;5.05;;;3.40;;
58384;SDS011;44185;47.844;8.966;2023-04-12T06:17:50;6.80;;;3.80;;
58384;SDS011;44185;47.844;8.966;2023-04-12T06:20:16;9.18;;;3.97;;
58384;SDS011;44185;47.844;8.966;2023-04-12T06:22:41;8.05;;;4.22;;
58384;SDS011;44185;47.844;8.966;2023-04-12T06:25:07;8.00;;;3.88;;
58384;SDS011;44185;47.844;8.966;2023-04-12T06:27:32;19.88;;;9.52;;
58384;SDS011;44185;47.844;8.966;2023-04-12T06:29:58;28.23;;;13.35;;
58384;SDS011;44185;47.844;8.966;2023-04-12T06:32:25;21.75;;;10.95;;
58384;SDS011;44185;47.844;8.966;2023-04-12T06:34:50;22.35;;;10.68;;
58384;SDS011;44185;47.844;8.966;2023-04-12T06:37:16;20.48;;;11.25;;
58384;SDS011;44185;47.844;8.966;2023-04-12T06:39:41;22.30;;;9.88;;
58384;SDS011;44185;47.844;8.966;2023-04-12T06:42:07;25.55;;;11.18;;
58384;SDS011;44185;47.844;8.966;2023-04-12T06:44:32;15.27;;;7.95;;
58384;SDS011;44185;47.844;8.966;2023-04-12T06:46:58;14.43;;;7.22;;
58384;SDS011;44185;47.844;8.966;2023-04-12T06:49:25;16.40;;;8.70;;
58384;SDS011;44185;47.844;8.966;2023-04-12T06:51:50;10.75;;;6.18;;
58384;SDS011;44185;47.844;8.966;2023-04-12T06:54:16;8.15;;;3.95;;
58384;SDS011;44185;47.844;8.966;2023-04-12T06:56:41;11.18;;;4.50;;
58384;SDS011;44185;47.844;8.966;2023-04-12T06:59:07;11.07;;;5.05;;
58384;SDS011;44185;47.844;8.966;2023-04-12T07:01:32;9.93;;;5.82;;
58384;SDS011;44185;47.844;8.966;2023-04-12T07:03:58;7.43;;;4.07;;
58384;SDS011;44185;47.844;8.966;2023-04-12T07:06:25;4.82;;;2.97;;
58384;SDS011;44185;47.844;8.966;2023-04-12T07:08:51;4.18;;;2.50;;
58384;SDS011;44185;47.844;8.966;2023-04-12T07:11:16;5.00;;;3.42;;
58384;SDS011;44185;47.844;8.966;2023-04-12T07:13:42;5.18;;;2.95;;
58384;SDS011;44185;47.844;8.966;2023-04-12T07:16:07;4.88;;;3.20;;
58384;SDS011;44185;47.844;8.966;2023-04-12T07:18:33;4.28;;;2.85;;
58384;SDS011;44185;47.844;8.966;2023-04-12T07:20:58;5.07;;;3.05;;
58384;SDS011;44185;47.844;8.966;2023-04-12T07:23:25;6.28;;;3.20;;
58384;SDS011;44185;47.844;8.966;2023-04-12T07:25:50;8.13;;;5.30;;
58384;SDS011;44185;47.844;8.966;2023-04-12T07:28:16;9.40;;;5.57;;
58384;SDS011;44185;47.844;8.966;2023-04-12T07:30:42;7.10;;;4.30;;
58384;SDS011;44185;47.844;8.966;2023-04-12T07:33:08;6.47;;;3.35;;
58384;SDS011;44185;47.844;8.966;2023-04-12T07:35:34;4.10;;;2.80;;
58384;SDS011;44185;47.844;8.966;2023-04-12T07:37:59;3.60;;;2.78;;
58384;SDS011;44185;47.844;8.966;2023-04-12T07:40:26;4.80;;;2.92;;
58384;SDS011;44185;47.844;8.966;2023-04-12T07:42:52;4.90;;;2.95;;
58384;SDS011;44185;47.844;8.966;2023-04-12T07:45:17;4.70;;;2.78;;
58384;SDS011;44185;47.844;8.966;2023-04-12T07:47:43;5.22;;;2.67;;
58384;SDS011;44185;47.844;8.966;2023-04-12T07:50:09;3.03;;;2.30;;
58384;SDS011;44185;47.844;8.966;2023-04-12T07:52:34;4.13;;;2.45;;
58384;SDS011;44185;47.844;8.966;2023-04-12T07:55:00;3.00;;;2.28;;
58384;SDS011;44185;47.844;8.966;2023-04-12T07:57:27;3.75;;;2.35;;
58384;SDS011;44185;47.844;8.966;2023-04-12T07:59:52;3.28;;;2.00;;
58384;SDS011;44185;47.844;8.966;2023-04-12T08:02:17;2.53;;;2.25;;
58384;SDS011;44185;47.844;8.966;2023-04-12T08:04:43;3.88;;;2.20;;
58384;SDS011;44185;47.844;8.966;2023-04-12T08:07:09;2.42;;;2.20;;
58384;SDS011;44185;47.844;8.966;2023-04-12T08:09:34;3.33;;;2.17;;
58384;SDS011;44185;47.844;8.966;2023-04-12T08:11:59;4.45;;;2.70;;
58384;SDS011;44185;47.844;8.966;2023-04-12T08:14:26;3.65;;;2.90;;
58384;SDS011;44185;47.844;8.966;2023-04-12T08:16:52;4.32;;;2.92;;
58384;SDS011;44185;47.844;8.966;2023-04-12T08:19:18;9.23;;;4.55;;
58384;SDS011;44185;47.844;8.966;2023-04-12T08:21:45;7.53;;;4.03;;
58384;SDS011;44185;47.844;8.966;2023-04-12T08:24:10;4.95;;;2.58;;
58384;SDS011;44185;47.844;8.966;2023-04-12T08:26:35;3.38;;;3.05;;
58384;SDS011;44185;47.844;8.966;2023-04-12T08:29:01;3.47;;;2.53;;
58384;SDS011;44185;47.844;8.966;2023-04-12T08:31:28;5.63;;;2.83;;
58384;SDS011;44185;47.844;8.966;2023-04-12T08:33:53;5.40;;;3.35;;
58384;SDS011;44185;47.844;8.966;2023-04-12T08:36:19;4.80;;;3.65;;
58384;SDS011;44185;47.844;8.966;2023-04-12T08:38:44;3.38;;;2.47;;
58384;SDS011;44185;47.844;8.966;2023-04-12T08:41:09;4.00;;;2.80;;
58384;SDS011;44185;47.844;8.966;2023-04-12T08:43:36;5.43;;;3.17;;
58384;SDS011;44185;47.844;8.966;2023-04-12T08:46:02;6.55;;;3.60;;
58384;SDS011;44185;47.844;8.966;2023-04-12T08:48:30;5.30;;;3.10;;
58384;SDS011;44185;47.844;8.966;2023-04-12T08:50:55;4.35;;;3.22;;
58384;SDS011;44185;47.844;8.966;2023-04-12T08:53:21;5.72;;;3.50;;
58384;SDS011;44185;47.844;8.966;2023-04-12T08:55:46;4.95;;;3.00;;
58384;SDS011;44185;47.844;8.966;2023-04-12T08:58:12;5.43;;;3.40;;
58384;SDS011;44185;47.844;8.966;2023-04-12T09:00:39;6.65;;;3.33;;
58384;SDS011;44185;47.844;8.966;2023-04-12T09:03:05;5.00;;;2.83;;
58384;SDS011;44185;47.844;8.966;2023-04-12T09:05:32;3.90;;;3.08;;
58384;SDS011;44185;47.844;8.966;2023-04-12T09:07:57;5.78;;;3.08;;
58384;SDS011;44185;47.844;8.966;2023-04-12T09:10:30;5.65;;;3.45;;
58384;SDS011;44185;47.844;8.966;2023-04-12T09:12:57;4.97;;;3.05;;
58384;SDS011;44185;47.844;8.966;2023-04-12T09:15:22;6.38;;;3.13;;
58384;SDS011;44185;47.844;8.966;2023-04-12T09:17:48;4.82;;;3.05;;
58384;SDS011;44185;47.844;8.966;2023-04-12T09:20:20;4.88;;;2.95;;
58384;SDS011;44185;47.844;8.966;2023-04-12T09:22:48;5.28;;;3.50;;
58384;SDS011;44185;47.844;8.966;2023-04-12T09:25:13;4.88;;;3.30;;
58384;SDS011;44185;47.844;8.966;2023-04-12T09:27:46;3.45;;;2.90;;
58384;SDS011;44185;47.844;8.966;2023-04-12T09:30:12;5.47;;;3.45;;
58384;SDS011;44185;47.844;8.966;2023-04-12T09:32:39;5.35;;;3.50;;
58384;SDS011;44185;47.844;8.966;2023-04-12T09:35:05;6.43;;;3.80;;
58384;SDS011;44185;47.844;8.966;2023-04-12T09:37:35;4.70;;;3.00;;
58384;SDS011;44185;47.844;8.966;2023-04-12T09:40:02;4.90;;;3.47;;
58384;SDS011;44185;47.844;8.966;2023-04-12T09:42:29;8.18;;;3.92;;
58384;SDS011;44185;47.844;8.966;2023-04-12T09:44:55;5.85;;;3.25;;
58384;SDS011;44185;47.844;8.966;2023-04-12T09:47:21;5.78;;;3.67;;
58384;SDS011;44185;47.844;8.966;2023-04-12T09:49:47;7.05;;;4.30;;
58384;SDS011;44185;47.844;8.966;2023-04-12T09:52:13;8.13;;;3.90;;
58384;SDS011;44185;47.844;8.966;2023-04-12T09:54:40;9.35;;;4.60;;
58384;SDS011;44185;47.844;8.966;2023-04-12T09:57:09;7.07;;;3.67;;
58384;SDS011;44185;47.844;8.966;2023-04-12T09:59:35;5.15;;;3.42;;
58384;SDS011;44185;47.844;8.966;2023-04-12T10:02:03;4.93;;;2.75;;
58384;SDS011;44185;47.844;8.966;2023-04-12T10:04:35;7.25;;;3.92;;
58384;SDS011;44185;47.844;8.966;2023-04-12T10:07:03;6.40;;;3.15;;
58384;SDS011;44185;47.844;8.966;2023-04-12T10:09:29;4.60;;;2.80;;
58384;SDS011;44185;47.844;8.966;2023-04-12T10:11:55;4.72;;;3.08;;
58384;SDS011;44185;47.844;8.966;2023-04-12T10:14:22;4.40;;;2.92;;
58384;SDS011;44185;47.844;8.966;2023-04-12T10:19:17;4.60;;;2.95;;
58384;SDS011;44185;47.844;8.966;2023-04-12T10:21:43;3.28;;;2.90;;
58384;SDS011;44185;47.844;8.966;2023-04-12T10:24:08;4.65;;;3.20;;
58384;SDS011;44185;47.844;8.966;2023-04-12T10:26:35;3.30;;;3.00;;
58384;SDS011;44185;47.844;8.966;2023-04-12T10:29:22;2.83;;;2.57;;
58384;SDS011;44185;47.844;8.966;2023-04-12T10:31:49;6.07;;;3.42;;
58384;SDS011;44185;47.844;8.966;2023-04-12T10:34:14;5.15;;;3.05;;
58384;SDS011;44185;47.844;8.966;2023-04-12T10:36:52;5.43;;;3.25;;
58384;SDS011;44185;47.844;8.966;2023-04-12T10:39:33;6.77;;;3.33;;
58384;SDS011;44185;47.844;8.966;2023-04-12T10:42:15;4.45;;;3.10;;
58384;SDS011;44185;47.844;8.966;2023-04-12T10:44:46;4.85;;;2.95;;
58384;SDS011;44185;47.844;8.966;2023-04-12T10:47:11;6.32;;;3.55;;
58384;SDS011;44185;47.844;8.966;2023-04-12T10:49:37;4.65;;;3.05;;
58384;SDS011;44185;47.844;8.966;2023-04-12T10:52:10;6.18;;;3.55;;
58384;SDS011;44185;47.844;8.966;2023-04-12T10:54:36;4.88;;;3.30;;
58384;SDS011;44185;47.844;8.966;2023-04-12T10:57:02;7.13;;;3.47;;
58384;SDS011;44185;47.844;8.966;2023-04-12T11:02:18;3.30;;;2.25;;
58384;SDS011;44185;47.844;8.966;2023-04-12T11:07:37;4.38;;;3.00;;
58384;SDS011;44185;47.844;8.966;2023-04-12T11:10:03;6.65;;;3.30;;
58384;SDS011;44185;47.844;8.966;2023-04-12T11:12:37;5.90;;;3.33;;
58384;SDS011;44185;47.844;8.966;2023-04-12T11:15:04;5.35;;;2.97;;
58384;SDS011;44185;47.844;8.966;2023-04-12T11:17:30;6.28;;;3.05;;
58384;SDS011;44185;47.844;8.966;2023-04-12T11:19:57;5.20;;;2.70;;
58384;SDS011;44185;47.844;8.966;2023-04-12T11:22:25;6.03;;;2.60;;
58384;SDS011;44185;47.844;8.966;2023-04-12T11:24:53;2.78;;;2.22;;
58384;SDS011;44185;47.844;8.966;2023-04-12T11:27:20;2.65;;;1.40;;
58384;SDS011;44185;47.844;8.966;2023-04-12T11:29:47;3.00;;;1.42;;
58384;SDS011;44185;47.844;8.966;2023-04-12T11:32:14;1.80;;;1.25;;
58384;SDS011;44185;47.844;8.966;2023-04-12T11:34:42;1.05;;;0.95;;
58384;SDS011;44185;47.844;8.966;2023-04-12T11:37:09;1.95;;;1.50;;
58384;SDS011;44185;47.844;8.966;2023-04-12T11:39:35;2.45;;;1.48;;
58384;SDS011;44185;47.844;8.966;2023-04-12T11:42:02;1.30;;;1.20;;
58384;SDS011;44185;47.844;8.966;2023-04-12T11:44:28;1.90;;;1.35;;
58384;SDS011;44185;47.844;8.966;2023-04-12T11:46:56;10.00;;;4.20;;
58384;SDS011;44185;47.844;8.966;2023-04-12T11:49:23;8.55;;;3.13;;
58384;SDS011;44185;47.844;8.966;2023-04-12T11:51:56;3.08;;;1.80;;
58384;SDS011;44185;47.844;8.966;2023-04-12T11:54:26;2.35;;;1.85;;
58384;SDS011;44185;47.844;8.966;2023-04-12T11:56:55;3.30;;;1.83;;
58384;SDS011;44185;47.844;8.966;2023-04-12T11:59:20;0.52;;;0.52;;
58384;SDS011;44185;47.844;8.966;2023-04-12T12:01:49;1.67;;;1.35;;
58384;SDS011;44185;47.844;8.966;2023-04-12T12:04:14;1.60;;;1.50;;
58384;SDS011;44185;47.844;8.966;2023-04-12T12:06:41;5.93;;;1.90;;
58384;SDS011;44185;47.844;8.966;2023-04-12T12:09:07;30.88;;;14.65;;
58384;SDS011;44185;47.844;8.966;2023-04-12T12:11:33;2.10;;;1.50;;
58384;SDS011;44185;47.844;8.966;2023-04-12T12:13:59;16.40;;;6.63;;
58384;SDS011;44185;47.844;8.966;2023-04-12T12:16:24;8.40;;;3.33;;
58384;SDS011;44185;47.844;8.966;2023-04-12T12:18:51;4.38;;;1.52;;
58384;SDS011;44185;47.844;8.966;2023-04-12T12:21:17;17.23;;;6.72;;
58384;SDS011;44185;47.844;8.966;2023-04-12T12:23:44;17.48;;;7.05;;
58384;SDS011;44185;47.844;8.966;2023-04-12T12:26:17;16.10;;;6.57;;
58384;SDS011;44185;47.844;8.966;2023-04-12T12:28:47;2.72;;;1.40;;
58384;SDS011;44185;47.844;8.966;2023-04-12T12:31:16;2.75;;;1.23;;
58384;SDS011;44185;47.844;8.966;2023-04-12T12:33:43;23.30;;;7.57;;
58384;SDS011;44185;47.844;8.966;2023-04-12T12:36:08;4.15;;;1.75;;
58384;SDS011;44185;47.844;8.966;2023-04-12T12:38:34;2.05;;;1.90;;
58384;SDS011;44185;47.844;8.966;2023-04-12T12:41:14;1.83;;;1.40;;
58384;SDS011;44185;47.844;8.966;2023-04-12T12:46:08;2.53;;;1.38;;
58384;SDS011;44185;47.844;8.966;2023-04-12T12:48:37;1.83;;;1.35;;
58384;SDS011;44185;47.844;8.966;2023-04-12T12:51:03;3.67;;;2.30;;
58384;SDS011;44185;47.844;8.966;2023-04-12T12:53:29;3.22;;;1.63;;
58384;SDS011;44185;47.844;8.966;2023-04-12T12:55:54;1.30;;;1.20;;
58384;SDS011;44185;47.844;8.966;2023-04-12T12:58:21;1.98;;;1.50;;
58384;SDS011;44185;47.844;8.966;2023-04-12T13:00:46;5.55;;;2.05;;
58384;SDS011;44185;47.844;8.966;2023-04-12T13:03:12;2.80;;;1.33;;
58384;SDS011;44185;47.844;8.966;2023-04-12T13:05:37;3.78;;;1.40;;
58384;SDS011;44185;47.844;8.966;2023-04-12T13:08:03;2.70;;;1.77;;
58384;SDS011;44185;47.844;8.966;2023-04-12T13:10:28;1.27;;;1.10;;
58384;SDS011;44185;47.844;8.966;2023-04-12T13:12:53;2.65;;;1.13;;
58384;SDS011;44185;47.844;8.966;2023-04-12T13:15:20;1.83;;;1.13;;
58384;SDS011;44185;47.844;8.966;2023-04-12T13:17:46;1.20;;;1.10;;
58384;SDS011;44185;47.844;8.966;2023-04-12T13:20:11;1.15;;;0.70;;
58384;SDS011;44185;47.844;8.966;2023-04-12T13:22:37;1.67;;;1.13;;
58384;SDS011;44185;47.844;8.966;2023-04-12T13:25:02;2.65;;;1.55;;
58384;SDS011;44185;47.844;8.966;2023-04-12T13:27:28;1.40;;;1.23;;
58384;SDS011;44185;47.844;8.966;2023-04-12T13:29:53;1.73;;;1.13;;
58384;SDS011;44185;47.844;8.966;2023-04-12T13:32:20;1.60;;;1.50;;
58384;SDS011;44185;47.844;8.966;2023-04-12T13:34:46;2.50;;;1.40;;
58384;SDS011;44185;47.844;8.966;2023-04-12T13:37:11;1.55;;;1.23;;
58384;SDS011;44185;47.844;8.966;2023-04-12T13:39:37;1.98;;;1.05;;
58384;SDS011;44185;47.844;8.966;2023-04-12T13:42:02;1.75;;;1.00;;
58384;SDS011;44185;47.844;8.966;2023-04-12T13:44:28;1.38;;;1.23;;
58384;SDS011;44185;47.844;8.966;2023-04-12T13:46:53;2.28;;;1.70;;
58384;SDS011;44185;47.844;8.966;2023-04-12T13:49:20;2.97;;;1.50;;
58384;SDS011;44185;47.844;8.966;2023-04-12T13:51:46;3.42;;;1.42;;
58384;SDS011;44185;47.844;8.966;2023-04-12T13:54:11;2.58;;;1.30;;
58384;SDS011;44185;47.844;8.966;2023-04-12T13:56:37;2.58;;;1.90;;
58384;SDS011;44185;47.844;8.966;2023-04-12T13:59:02;3.35;;;1.33;;
58384;SDS011;44185;47.844;8.966;2023-04-12T14:01:27;2.85;;;1.83;;
58384;SDS011;44185;47.844;8.966;2023-04-12T14:03:53;3.47;;;2.00;;
58384;SDS011;44185;47.844;8.966;2023-04-12T14:06:20;2.90;;;1.63;;
58384;SDS011;44185;47.844;8.966;2023-04-12T14:08:45;2.00;;;1.55;;
58384;SDS011;44185;47.844;8.966;2023-04-12T14:11:11;1.20;;;1.10;;
58384;SDS011;44185;47.844;8.966;2023-04-12T14:13:36;3.93;;;2.10;;
58384;SDS011;44185;47.844;8.966;2023-04-12T14:16:02;6.85;;;1.63;;
58384;SDS011;44185;47.844;8.966;2023-04-12T14:18:27;2.45;;;1.67;;
58384;SDS011;44185;47.844;8.966;2023-04-12T14:20:53;3.40;;;1.60;;
58384;SDS011;44185;47.844;8.966;2023-04-12T14:23:20;2.40;;;1.50;;
58384;SDS011;44185;47.844;8.966;2023-04-12T14:25:45;1.50;;;1.40;;
58384;SDS011;44185;47.844;8.966;2023-04-12T14:28:11;2.70;;;1.77;;
58384;SDS011;44185;47.844;8.966;2023-04-12T14:30:36;2.95;;;1.60;;
58384;SDS011;44185;47.844;8.966;2023-04-12T14:33:02;3.15;;;1.75;;
58384;SDS011;44185;47.844;8.966;2023-04-12T14:35:27;2.75;;;1.30;;
58384;SDS011;44185;47.844;8.966;2023-04-12T14:37:53;2.95;;;0.98;;
58384;SDS011;44185;47.844;8.966;2023-04-12T14:40:20;3.92;;;1.00;;
58384;SDS011;44185;47.844;8.966;2023-04-12T14:42:45;1.23;;;0.95;;
58384;SDS011;44185;47.844;8.966;2023-04-12T14:45:11;1.38;;;0.90;;
58384;SDS011;44185;47.844;8.966;2023-04-12T14:47:36;1.13;;;0.80;;
58384;SDS011;44185;47.844;8.966;2023-04-12T14:50:02;1.25;;;1.10;;
58384;SDS011;44185;47.844;8.966;2023-04-12T14:52:28;1.40;;;1.30;;